Allie B — WDD3857 — position and weather

sailwx.info

Track history (hours):
 
Tides and Currents Weather Stations Pressure Air Temp Water Temp Dewpoint Dewpoint Depression Visibility Wind Speed Wind Dir Waves Ship Positions

Allie B

Owner: Dann, Stephen, Tampa, FL. More information available from US FCC via Universal Licensing System and Coast Guard Vessel Documentation Center.

Last reported at 2018-May-17 19:05 UTC. Time now 2018-May-20 11:37 UTC.
Position N 39°27' W 074°16'.

Length 35 m; draft 4 m.

Type: Tow > 200 m length. MMSI: 367137180.

Date/timePositionNaut miles runAvg speedWind from/ knotsBaromVisibWave heightAir tempDewpointWater temp
2018-May-17 19:05N 39°27' W 074°16'1 9.6
2018-May-17 19:00N 39°28' W 074°15'5 9.4
2018-May-17 18:30N 39°32' W 074°12'5 9.4
2018-May-17 18:00N 39°36' W 074°09'5 9.4
2018-May-17 17:27N 39°40' W 074°05'4 9.5
2018-May-17 17:00N 39°44' W 074°03'5 9.5
2018-May-17 16:30N 39°49' W 074°02'3 6.5
2018-May-17 16:00N 39°52' W 074°03'1 1.1
2018-May-17 15:28N 39°53' W 074°02'0 1.0
2018-May-17 15:00N 39°53' W 074°03'0 0.6
2018-May-17 14:25N 39°53' W 074°03'0 0.9
2018-May-17 14:00N 39°54' W 074°02'0 0.4
2018-May-17 13:29N 39°54' W 074°02'0 0.9
2018-May-17 12:58N 39°54' W 074°02'1 0.9
2018-May-17 12:24N 39°55' W 074°02'0 0.9
2018-May-17 11:56N 39°55' W 074°01'0 0.1
2018-May-17 11:30N 39°55' W 074°01'0 0.5
2018-May-17 11:00N 39°55' W 074°01'0 0.3
2018-May-17 10:29N 39°55' W 074°01'0 0.5
2018-May-17 09:56N 39°55' W 074°02'0 0.4
2018-May-17 09:29N 39°56' W 074°02'2 3.3
2018-May-17 09:00N 39°57' W 074°02'3 3.2
2018-May-17 08:02N 40°00' W 074°02'0 0.5
2018-May-17 07:37N 40°00' W 074°03'0 0.3
2018-May-17 07:23N 40°00' W 074°03'4 3.7
2018-May-17 06:11N 39°56' W 074°01'1 1.9
2018-May-17 05:44N 39°55' W 074°01'0 0.8
2018-May-17 05:30N 39°55' W 074°01'1 1.8
2018-May-17 04:58N 39°55' W 074°02'1 1.6
2018-May-17 04:25N 39°55' W 074°01'0 0.4
2018-May-17 03:59N 39°55' W 074°01'0 0.3
2018-May-17 03:24N 39°55' W 074°01'0 0.0
2018-May-17 02:50N 39°55' W 074°01'0 0.1
2018-May-17 02:26N 39°55' W 074°01'0 0.4
2018-May-17 01:57N 39°55' W 074°02'0 0.1
2018-May-16 22:58N 39°55' W 074°02'0 0.5
2018-May-16 22:30N 39°55' W 074°02'0 0.6
2018-May-16 22:00N 39°55' W 074°02'0 0.4
2018-May-16 21:26N 39°55' W 074°02'0 0.2
2018-May-16 21:00N 39°55' W 074°02'0 0.0
2018-May-16 20:28N 39°55' W 074°02'0 0.6
2018-May-16 19:58N 39°55' W 074°02'0 0.6
2018-May-16 19:29N 39°56' W 074°02'2 3.7
2018-May-16 18:57N 39°57' W 074°02'2 0.6
2018-May-16 15:19N 39°55' W 074°01'0 0.6
2018-May-16 14:59N 39°55' W 074°01'0 0.3
2018-May-16 14:16N 39°55' W 074°01'0 0.4
2018-May-16 14:00N 39°55' W 074°01'0 0.2
2018-May-16 13:18N 39°55' W 074°02'0 0.0
2018-May-16 12:00N 39°55' W 074°01'0 0.1
2018-May-16 11:27N 39°55' W 074°02'0 0.1
2018-May-16 10:54N 39°55' W 074°02'0 0.2
2018-May-16 10:28N 39°55' W 074°02'1 1.2
2018-May-16 09:59N 39°56' W 074°02'2 0.7
2018-May-16 07:05N 39°58' W 074°01'0 5.3
2018-May-16 07:00N 39°57' W 074°02'2 4.1
2018-May-16 06:29N 39°55' W 074°01'0 0.1
2018-May-16 05:59N 39°55' W 074°02'0 0.5
2018-May-16 05:29N 39°55' W 074°02'0 0.2
2018-May-16 05:00N 39°55' W 074°02'0 0.3
2018-May-16 04:03N 39°55' W 074°01'0 0.1
2018-May-16 03:59N 39°55' W 074°01'0 0.2
2018-May-16 03:24N 39°55' W 074°01'0 0.2
2018-May-16 02:27N 39°55' W 074°01'0 0.7
2018-May-16 01:59N 39°55' W 074°02'0 0.6
2018-May-16 01:22N 39°56' W 074°02'1 0.2
2018-May-15 22:37N 39°56' W 074°02'1 7.7
2018-May-15 22:28N 39°55' W 074°03'0 0.4
2018-May-15 21:36N 39°55' W 074°02'0 0.3
2018-May-15 20:35N 39°55' W 074°03'0 0.9
2018-May-15 20:29N 39°55' W 074°03'1 1.1
2018-May-15 19:59N 39°56' W 074°03'0 0.1
2018-May-15 18:42N 39°55' W 074°03'0 0.2
2018-May-15 18:16N 39°55' W 074°03'0 0.7
2018-May-15 17:50N 39°56' W 074°03'1 0.2
2018-May-15 14:54N 39°56' W 074°03'1 2.6
2018-May-15 14:29N 39°55' W 074°03'0 0.1
2018-May-15 14:00N 39°55' W 074°03'0 0.2
2018-May-15 13:29N 39°55' W 074°03'0 0.2
2018-May-15 12:55N 39°55' W 074°03'5 5.3
2018-May-15 11:54N 40°01' W 074°02'0 0.3
2018-May-15 10:52N 40°00' W 074°02'5 6.1
2018-May-15 10:01N 39°55' W 074°03'0 2.2
2018-May-15 09:59N 39°55' W 074°03'0 0.1
2018-May-15 09:29N 39°55' W 074°03'0 0.3
2018-May-15 08:56N 39°55' W 074°03'0 0.4
2018-May-15 08:11N 39°55' W 074°03'0 1.1
2018-May-15 07:58N 39°56' W 074°03'0 0.5
2018-May-15 07:28N 39°56' W 074°03'4 3.5
2018-May-15 06:12N 40°00' W 074°02'0 0.3
2018-May-15 05:59N 40°00' W 074°02'3 2.5
2018-May-15 04:36N 39°57' W 074°03'1 8.0
2018-May-15 04:27N 39°56' W 074°03'1 1.3
2018-May-15 04:00N 39°55' W 074°03'0 0.2
2018-May-15 03:30N 39°55' W 074°03'0 0.3
2018-May-15 02:54N 39°55' W 074°03'5 3.3
2018-May-15 01:17N 40°00' W 074°03'4 2.5
2018-May-14 23:34N 39°56' W 074°02'1 7.3
2018-May-14 23:23N 39°55' W 074°03'0 0.1
2018-May-14 22:59N 39°55' W 074°03'0 0.5
2018-May-14 22:30N 39°55' W 074°03'0 0.4
2018-May-14 21:21N 39°55' W 074°02'0 0.3
2018-May-14 20:25N 39°56' W 074°02'1 0.2
2018-May-14 16:37N 39°55' W 074°01'0 0.1
2018-May-14 16:29N 39°55' W 074°01'0 0.3
2018-May-14 15:58N 39°55' W 074°01'0 0.1
2018-May-14 15:28N 39°55' W 074°01'0 0.1
2018-May-14 14:54N 39°55' W 074°01'0 0.1
2018-May-14 14:18N 39°55' W 074°01'0 0.1
2018-May-14 13:50N 39°55' W 074°01'0 0.3
2018-May-14 13:13N 39°55' W 074°02'0 0.6
2018-May-14 13:01N 39°55' W 074°02'0 0.5
2018-May-14 12:30N 39°55' W 074°02'1 2.2
2018-May-14 11:57N 39°56' W 074°03'0 0.1
2018-May-14 09:20N 39°56' W 074°03'1 3.9
2018-May-14 09:00N 39°55' W 074°03'0 0.9
2018-May-14 08:30N 39°55' W 074°03'0 0.6
2018-May-14 08:00N 39°55' W 074°03'0 0.5
2018-May-14 07:28N 39°55' W 074°03'0 0.4
2018-May-14 07:00N 39°55' W 074°03'0 0.3
2018-May-14 06:28N 39°55' W 074°03'0 0.5
2018-May-14 05:53N 39°55' W 074°03'1 1.3
2018-May-14 05:28N 39°55' W 074°02'0 0.3
2018-May-14 04:54N 39°55' W 074°02'0 0.1
2018-May-14 04:30N 39°55' W 074°02'0 0.2
2018-May-14 04:00N 39°55' W 074°02'0 0.1
2018-May-14 03:30N 39°55' W 074°02'0 0.2
2018-May-14 02:58N 39°54' W 074°02'1 1.1
2018-May-14 02:27N 39°55' W 074°02'1 1.1
2018-May-14 01:59N 39°55' W 074°03'0 0.1
2018-May-13 22:20N 39°55' W 074°02'0 0.3
2018-May-13 21:59N 39°55' W 074°02'0 0.3
2018-May-13 21:05N 39°55' W 074°02'0 1.4
2018-May-13 20:56N 39°55' W 074°02'0 0.9
2018-May-13 20:30N 39°55' W 074°02'0 0.3
2018-May-13 19:26N 39°55' W 074°02'0 0.1
2018-May-13 18:55N 39°55' W 074°02'0 0.2
2018-May-13 18:13N 39°55' W 074°02'0 0.8
2018-May-13 17:55N 39°55' W 074°02'1 1.5
2018-May-13 17:30N 39°55' W 074°03'0 0.3
2018-May-13 17:00N 39°55' W 074°03'1 1.0
2018-May-13 16:29N 39°55' W 074°02'1 1.8
2018-May-13 16:00N 39°55' W 074°03'0 0.1
2018-May-13 12:50N 39°55' W 074°03'0 0.3
2018-May-13 12:25N 39°55' W 074°03'0 0.5
2018-May-13 12:00N 39°55' W 074°03'1 1.1
2018-May-13 11:28N 39°55' W 074°03'2 0.6
2018-May-13 08:51N 39°57' W 074°03'2 4.8
2018-May-13 08:29N 39°55' W 074°03'0 1.0
2018-May-13 08:00N 39°55' W 074°03'0 0.7
2018-May-13 07:25N 39°55' W 074°03'2 0.5
2018-May-13 03:57N 39°57' W 074°03'2 4.3
2018-May-13 03:30N 39°55' W 074°03'0 0.3
2018-May-13 03:00N 39°55' W 074°03'0 0.2
2018-May-13 02:30N 39°55' W 074°03'0 0.5
2018-May-13 02:00N 39°55' W 074°03'1 0.2
2018-May-12 23:16N 39°55' W 074°03'0 0.4
2018-May-12 23:00N 39°55' W 074°03'0 0.7
2018-May-12 22:30N 39°55' W 074°03'0 0.6
2018-May-12 21:57N 39°55' W 074°03'0 0.9
2018-May-12 21:30N 39°55' W 074°03'0 0.1
2018-May-12 18:49N 39°55' W 074°03'0 0.4
2018-May-12 18:30N 39°55' W 074°03'0 0.1
2018-May-12 18:00N 39°55' W 074°03'0 0.3
2018-May-12 17:30N 39°55' W 074°03'0 0.3
2018-May-12 16:57N 39°55' W 074°03'0 0.4
2018-May-12 16:28N 39°55' W 074°03'0 0.9
2018-May-12 15:55N 39°55' W 074°03'0 0.1
2018-May-12 15:29N 39°55' W 074°03'0 0.4
2018-May-12 14:59N 39°55' W 074°03'0 0.1
2018-May-12 14:30N 39°55' W 074°03'0 0.2
2018-May-12 13:59N 39°55' W 074°03'0 0.3
2018-May-12 13:28N 39°55' W 074°03'0 0.1
2018-May-12 13:00N 39°55' W 074°03'5 1.9
2018-May-12 10:31N 39°60' W 074°03'1 7.4
2018-May-12 10:27N 39°59' W 074°03'4 7.9
2018-May-12 09:53N 39°55' W 074°03'0 0.1
2018-May-12 09:30N 39°55' W 074°03'0 0.3
2018-May-12 08:57N 39°55' W 074°03'0 0.8
2018-May-12 08:29N 39°55' W 074°03'0 0.8
2018-May-12 07:57N 39°56' W 074°03'4 5.0
2018-May-12 07:04N 40°00' W 074°03'0 0.0
2018-May-12 06:53N 40°00' W 074°03'2 1.3
2018-May-12 05:42N 39°59' W 074°03'2 7.7
2018-May-12 05:26N 39°57' W 074°03'1 3.1
2018-May-12 05:00N 39°55' W 074°03'0 0.5
2018-May-12 04:28N 39°55' W 074°03'0 0.7
2018-May-12 03:58N 39°55' W 074°03'0 0.7
2018-May-12 03:29N 39°55' W 074°02'0 0.1
2018-May-12 03:00N 39°55' W 074°02'0 0.2
2018-May-12 02:30N 39°55' W 074°02'0 0.1
2018-May-12 02:00N 39°55' W 074°02'0 0.8
2018-May-12 01:30N 39°56' W 074°03'1 0.4
2018-May-11 22:45N 39°55' W 074°01'0 0.6
2018-May-11 22:25N 39°55' W 074°01'0 0.4
2018-May-11 21:49N 39°55' W 074°01'0 0.4
2018-May-11 21:19N 39°55' W 074°02'0 1.0
2018-May-11 20:57N 39°55' W 074°02'0 0.4
2018-May-11 20:30N 39°55' W 074°02'0 0.6
2018-May-11 19:58N 39°55' W 074°02'0 0.9
2018-May-11 19:29N 39°55' W 074°02'1 1.3
2018-May-11 18:56N 39°56' W 074°03'5 4.0
2018-May-11 17:45N 40°00' W 074°03'0 0.1
2018-May-11 16:37N 40°00' W 074°03'0 1.6
2018-May-11 16:29N 40°00' W 074°03'4 3.6
2018-May-11 15:26N 39°57' W 074°03'0 0.2
2018-May-11 14:58N 39°57' W 074°03'1 2.0
2018-May-11 14:28N 39°56' W 074°03'0 0.5
2018-May-11 13:42N 39°55' W 074°02'0 1.0
2018-May-11 13:26N 39°55' W 074°02'38 1.5
2018-May-10 12:33N 40°32' W 074°15'0 0.5
2018-May-10 12:30N 40°32' W 074°15'0 0.0
2018-May-10 12:00N 40°32' W 074°15'0 0.0
2018-May-10 11:30N 40°32' W 074°15'0 0.0
2018-May-10 11:00N 40°32' W 074°15'0 0.0
2018-May-10 10:26N 40°32' W 074°15'0 0.0
2018-May-10 10:00N 40°32' W 074°15'0 0.0
2018-May-10 09:29N 40°32' W 074°15'0 0.0
2018-May-10 08:57N 40°32' W 074°15'0 0.0
2018-May-10 08:28N 40°32' W 074°15'0 0.0
2018-May-10 08:00N 40°32' W 074°15'0 0.0
2018-May-10 07:28N 40°32' W 074°15'0 0.0
2018-May-10 07:00N 40°32' W 074°15'0 0.0
2018-May-10 06:30N 40°32' W 074°15'0 0.0
2018-May-10 06:00N 40°32' W 074°15'0 0.0
2018-May-10 05:28N 40°32' W 074°15'0 0.0
2018-May-10 05:00N 40°32' W 074°15'0 0.0
2018-May-10 04:30N 40°32' W 074°15'0 0.0
2018-May-10 03:22N 40°32' W 074°15'12 1.7
2018-May-09 20:19N 40°28' W 074°01'0 0.0
2018-May-09 19:42N 40°28' W 074°01'0 0.0
2018-May-09 19:29N 40°28' W 074°01'0 0.0
2018-May-09 18:49N 40°28' W 074°01'0 0.0
2018-May-09 18:21N 40°28' W 074°01'0 0.0
2018-May-09 13:14N 40°28' W 074°01'0 0.0
2018-May-09 12:41N 40°28' W 074°01'0 0.0
2018-May-09 12:30N 40°28' W 074°01'0 0.0
2018-May-09 12:00N 40°28' W 074°01'0 0.0
2018-May-09 11:30N 40°28' W 074°01'0 0.0
2018-May-09 11:00N 40°28' W 074°01'0 0.0
2018-May-09 10:26N 40°28' W 074°01'0 0.0
2018-May-09 09:59N 40°28' W 074°01'0 0.0
2018-May-09 08:29N 40°28' W 074°01'0 0.0
2018-May-09 07:59N 40°28' W 074°01'0 0.0
2018-May-09 04:27N 40°28' W 074°01'0 0.0
2018-May-09 03:44N 40°28' W 074°01'0 0.0
2018-May-09 03:28N 40°28' W 074°01'  
Track history (hours):
 
Tides and Currents Weather Stations Pressure Air Temp Water Temp Dewpoint Dewpoint Depression Visibility Wind Speed Wind Dir Waves Ship Positions

Allie B

Owner: Dann, Stephen, Tampa, FL. More information available from US FCC via Universal Licensing System and Coast Guard Vessel Documentation Center.

Last reported at 2018-May-17 19:05 UTC. Time now 2018-May-20 11:37 UTC.
Position N 39°27' W 074°16'.

Length 35 m; draft 4 m.

Type: Tow > 200 m length. MMSI: 367137180.

Date/timePositionNaut miles runAvg speedWind from/ knotsBaromVisibWave heightAir tempDewpointWater temp
2018-May-17 19:05N 39°27' W 074°16'1 9.6
2018-May-17 19:00N 39°28' W 074°15'5 9.4
2018-May-17 18:30N 39°32' W 074°12'5 9.4
2018-May-17 18:00N 39°36' W 074°09'5 9.4
2018-May-17 17:27N 39°40' W 074°05'4 9.5
2018-May-17 17:00N 39°44' W 074°03'5 9.5
2018-May-17 16:30N 39°49' W 074°02'3 6.5
2018-May-17 16:00N 39°52' W 074°03'1 1.1
2018-May-17 15:28N 39°53' W 074°02'0 1.0
2018-May-17 15:00N 39°53' W 074°03'0 0.6
2018-May-17 14:25N 39°53' W 074°03'0 0.9
2018-May-17 14:00N 39°54' W 074°02'0 0.4
2018-May-17 13:29N 39°54' W 074°02'0 0.9
2018-May-17 12:58N 39°54' W 074°02'1 0.9
2018-May-17 12:24N 39°55' W 074°02'0 0.9
2018-May-17 11:56N 39°55' W 074°01'0 0.1
2018-May-17 11:30N 39°55' W 074°01'0 0.5
2018-May-17 11:00N 39°55' W 074°01'0 0.3
2018-May-17 10:29N 39°55' W 074°01'0 0.5
2018-May-17 09:56N 39°55' W 074°02'0 0.4
2018-May-17 09:29N 39°56' W 074°02'2 3.3
2018-May-17 09:00N 39°57' W 074°02'3 3.2
2018-May-17 08:02N 40°00' W 074°02'0 0.5
2018-May-17 07:37N 40°00' W 074°03'0 0.3
2018-May-17 07:23N 40°00' W 074°03'4 3.7
2018-May-17 06:11N 39°56' W 074°01'1 1.9
2018-May-17 05:44N 39°55' W 074°01'0 0.8
2018-May-17 05:30N 39°55' W 074°01'1 1.8
2018-May-17 04:58N 39°55' W 074°02'1 1.6
2018-May-17 04:25N 39°55' W 074°01'0 0.4
2018-May-17 03:59N 39°55' W 074°01'0 0.3
2018-May-17 03:24N 39°55' W 074°01'0 0.0
2018-May-17 02:50N 39°55' W 074°01'0 0.1
2018-May-17 02:26N 39°55' W 074°01'0 0.4
2018-May-17 01:57N 39°55' W 074°02'0 0.1
2018-May-16 22:58N 39°55' W 074°02'0 0.5
2018-May-16 22:30N 39°55' W 074°02'0 0.6
2018-May-16 22:00N 39°55' W 074°02'0 0.4
2018-May-16 21:26N 39°55' W 074°02'0 0.2
2018-May-16 21:00N 39°55' W 074°02'0 0.0
2018-May-16 20:28N 39°55' W 074°02'0 0.6
2018-May-16 19:58N 39°55' W 074°02'0 0.6
2018-May-16 19:29N 39°56' W 074°02'2 3.7
2018-May-16 18:57N 39°57' W 074°02'2 0.6
2018-May-16 15:19N 39°55' W 074°01'0 0.6
2018-May-16 14:59N 39°55' W 074°01'0 0.3
2018-May-16 14:16N 39°55' W 074°01'0 0.4
2018-May-16 14:00N 39°55' W 074°01'0 0.2
2018-May-16 13:18N 39°55' W 074°02'0 0.0
2018-May-16 12:00N 39°55' W 074°01'0 0.1
2018-May-16 11:27N 39°55' W 074°02'0 0.1
2018-May-16 10:54N 39°55' W 074°02'0 0.2
2018-May-16 10:28N 39°55' W 074°02'1 1.2
2018-May-16 09:59N 39°56' W 074°02'2 0.7
2018-May-16 07:05N 39°58' W 074°01'0 5.3
2018-May-16 07:00N 39°57' W 074°02'2 4.1
2018-May-16 06:29N 39°55' W 074°01'0 0.1
2018-May-16 05:59N 39°55' W 074°02'0 0.5
2018-May-16 05:29N 39°55' W 074°02'0 0.2
2018-May-16 05:00N 39°55' W 074°02'0 0.3
2018-May-16 04:03N 39°55' W 074°01'0 0.1
2018-May-16 03:59N 39°55' W 074°01'0 0.2
2018-May-16 03:24N 39°55' W 074°01'0 0.2
2018-May-16 02:27N 39°55' W 074°01'0 0.7
2018-May-16 01:59N 39°55' W 074°02'0 0.6
2018-May-16 01:22N 39°56' W 074°02'1 0.2
2018-May-15 22:37N 39°56' W 074°02'1 7.7
2018-May-15 22:28N 39°55' W 074°03'0 0.4
2018-May-15 21:36N 39°55' W 074°02'0 0.3
2018-May-15 20:35N 39°55' W 074°03'0 0.9
2018-May-15 20:29N 39°55' W 074°03'1 1.1
2018-May-15 19:59N 39°56' W 074°03'0 0.1
2018-May-15 18:42N 39°55' W 074°03'0 0.2
2018-May-15 18:16N 39°55' W 074°03'0 0.7
2018-May-15 17:50N 39°56' W 074°03'1 0.2
2018-May-15 14:54N 39°56' W 074°03'1 2.6
2018-May-15 14:29N 39°55' W 074°03'0 0.1
2018-May-15 14:00N 39°55' W 074°03'0 0.2
2018-May-15 13:29N 39°55' W 074°03'0 0.2
2018-May-15 12:55N 39°55' W 074°03'5 5.3
2018-May-15 11:54N 40°01' W 074°02'0 0.3
2018-May-15 10:52N 40°00' W 074°02'5 6.1
2018-May-15 10:01N 39°55' W 074°03'0 2.2
2018-May-15 09:59N 39°55' W 074°03'0 0.1
2018-May-15 09:29N 39°55' W 074°03'0 0.3
2018-May-15 08:56N 39°55' W 074°03'0 0.4
2018-May-15 08:11N 39°55' W 074°03'0 1.1
2018-May-15 07:58N 39°56' W 074°03'0 0.5
2018-May-15 07:28N 39°56' W 074°03'4 3.5
2018-May-15 06:12N 40°00' W 074°02'0 0.3
2018-May-15 05:59N 40°00' W 074°02'3 2.5
2018-May-15 04:36N 39°57' W 074°03'1 8.0
2018-May-15 04:27N 39°56' W 074°03'1 1.3
2018-May-15 04:00N 39°55' W 074°03'0 0.2
2018-May-15 03:30N 39°55' W 074°03'0 0.3
2018-May-15 02:54N 39°55' W 074°03'5 3.3
2018-May-15 01:17N 40°00' W 074°03'4 2.5
2018-May-14 23:34N 39°56' W 074°02'1 7.3
2018-May-14 23:23N 39°55' W 074°03'0 0.1
2018-May-14 22:59N 39°55' W 074°03'0 0.5
2018-May-14 22:30N 39°55' W 074°03'0 0.4
2018-May-14 21:21N 39°55' W 074°02'0 0.3
2018-May-14 20:25N 39°56' W 074°02'1 0.2
2018-May-14 16:37N 39°55' W 074°01'0 0.1
2018-May-14 16:29N 39°55' W 074°01'0 0.3
2018-May-14 15:58N 39°55' W 074°01'0 0.1
2018-May-14 15:28N 39°55' W 074°01'0 0.1
2018-May-14 14:54N 39°55' W 074°01'0 0.1
2018-May-14 14:18N 39°55' W 074°01'0 0.1
2018-May-14 13:50N 39°55' W 074°01'0 0.3
2018-May-14 13:13N 39°55' W 074°02'0 0.6
2018-May-14 13:01N 39°55' W 074°02'0 0.5
2018-May-14 12:30N 39°55' W 074°02'1 2.2
2018-May-14 11:57N 39°56' W 074°03'0 0.1
2018-May-14 09:20N 39°56' W 074°03'1 3.9
2018-May-14 09:00N 39°55' W 074°03'0 0.9
2018-May-14 08:30N 39°55' W 074°03'0 0.6
2018-May-14 08:00N 39°55' W 074°03'0 0.5
2018-May-14 07:28N 39°55' W 074°03'0 0.4
2018-May-14 07:00N 39°55' W 074°03'0 0.3
2018-May-14 06:28N 39°55' W 074°03'0 0.5
2018-May-14 05:53N 39°55' W 074°03'1 1.3
2018-May-14 05:28N 39°55' W 074°02'0 0.3
2018-May-14 04:54N 39°55' W 074°02'0 0.1
2018-May-14 04:30N 39°55' W 074°02'0 0.2
2018-May-14 04:00N 39°55' W 074°02'0 0.1
2018-May-14 03:30N 39°55' W 074°02'0 0.2
2018-May-14 02:58N 39°54' W 074°02'1 1.1
2018-May-14 02:27N 39°55' W 074°02'1 1.1
2018-May-14 01:59N 39°55' W 074°03'0 0.1
2018-May-13 22:20N 39°55' W 074°02'0 0.3
2018-May-13 21:59N 39°55' W 074°02'0 0.3
2018-May-13 21:05N 39°55' W 074°02'0 1.4
2018-May-13 20:56N 39°55' W 074°02'0 0.9
2018-May-13 20:30N 39°55' W 074°02'0 0.3
2018-May-13 19:26N 39°55' W 074°02'0 0.1
2018-May-13 18:55N 39°55' W 074°02'0 0.2
2018-May-13 18:13N 39°55' W 074°02'0 0.8
2018-May-13 17:55N 39°55' W 074°02'1 1.5
2018-May-13 17:30N 39°55' W 074°03'0 0.3
2018-May-13 17:00N 39°55' W 074°03'1 1.0
2018-May-13 16:29N 39°55' W 074°02'1 1.8
2018-May-13 16:00N 39°55' W 074°03'0 0.1
2018-May-13 12:50N 39°55' W 074°03'0 0.3
2018-May-13 12:25N 39°55' W 074°03'0 0.5
2018-May-13 12:00N 39°55' W 074°03'1 1.1
2018-May-13 11:28N 39°55' W 074°03'2 0.6
2018-May-13 08:51N 39°57' W 074°03'2 4.8
2018-May-13 08:29N 39°55' W 074°03'0 1.0
2018-May-13 08:00N 39°55' W 074°03'0 0.7
2018-May-13 07:25N 39°55' W 074°03'2 0.5
2018-May-13 03:57N 39°57' W 074°03'2 4.3
2018-May-13 03:30N 39°55' W 074°03'0 0.3
2018-May-13 03:00N 39°55' W 074°03'0 0.2
2018-May-13 02:30N 39°55' W 074°03'0 0.5
2018-May-13 02:00N 39°55' W 074°03'1 0.2
2018-May-12 23:16N 39°55' W 074°03'0 0.4
2018-May-12 23:00N 39°55' W 074°03'0 0.7
2018-May-12 22:30N 39°55' W 074°03'0 0.6
2018-May-12 21:57N 39°55' W 074°03'0 0.9
2018-May-12 21:30N 39°55' W 074°03'0 0.1
2018-May-12 18:49N 39°55' W 074°03'0 0.4
2018-May-12 18:30N 39°55' W 074°03'0 0.1
2018-May-12 18:00N 39°55' W 074°03'0 0.3
2018-May-12 17:30N 39°55' W 074°03'0 0.3
2018-May-12 16:57N 39°55' W 074°03'0 0.4
2018-May-12 16:28N 39°55' W 074°03'0 0.9
2018-May-12 15:55N 39°55' W 074°03'0 0.1
2018-May-12 15:29N 39°55' W 074°03'0 0.4
2018-May-12 14:59N 39°55' W 074°03'0 0.1
2018-May-12 14:30N 39°55' W 074°03'0 0.2
2018-May-12 13:59N 39°55' W 074°03'0 0.3
2018-May-12 13:28N 39°55' W 074°03'0 0.1
2018-May-12 13:00N 39°55' W 074°03'5 1.9
2018-May-12 10:31N 39°60' W 074°03'1 7.4
2018-May-12 10:27N 39°59' W 074°03'4 7.9
2018-May-12 09:53N 39°55' W 074°03'0 0.1
2018-May-12 09:30N 39°55' W 074°03'0 0.3
2018-May-12 08:57N 39°55' W 074°03'0 0.8
2018-May-12 08:29N 39°55' W 074°03'0 0.8
2018-May-12 07:57N 39°56' W 074°03'4 5.0
2018-May-12 07:04N 40°00' W 074°03'0 0.0
2018-May-12 06:53N 40°00' W 074°03'2 1.3
2018-May-12 05:42N 39°59' W 074°03'2 7.7
2018-May-12 05:26N 39°57' W 074°03'1 3.1
2018-May-12 05:00N 39°55' W 074°03'0 0.5
2018-May-12 04:28N 39°55' W 074°03'0 0.7
2018-May-12 03:58N 39°55' W 074°03'0 0.7
2018-May-12 03:29N 39°55' W 074°02'0 0.1
2018-May-12 03:00N 39°55' W 074°02'0 0.2
2018-May-12 02:30N 39°55' W 074°02'0 0.1
2018-May-12 02:00N 39°55' W 074°02'0 0.8
2018-May-12 01:30N 39°56' W 074°03'1 0.4
2018-May-11 22:45N 39°55' W 074°01'0 0.6
2018-May-11 22:25N 39°55' W 074°01'0 0.4
2018-May-11 21:49N 39°55' W 074°01'0 0.4
2018-May-11 21:19N 39°55' W 074°02'0 1.0
2018-May-11 20:57N 39°55' W 074°02'0 0.4
2018-May-11 20:30N 39°55' W 074°02'0 0.6
2018-May-11 19:58N 39°55' W 074°02'0 0.9
2018-May-11 19:29N 39°55' W 074°02'1 1.3
2018-May-11 18:56N 39°56' W 074°03'5 4.0
2018-May-11 17:45N 40°00' W 074°03'0 0.1
2018-May-11 16:37N 40°00' W 074°03'0 1.6
2018-May-11 16:29N 40°00' W 074°03'4 3.6
2018-May-11 15:26N 39°57' W 074°03'0 0.2
2018-May-11 14:58N 39°57' W 074°03'1 2.0
2018-May-11 14:28N 39°56' W 074°03'0 0.5
2018-May-11 13:42N 39°55' W 074°02'0 1.0
2018-May-11 13:26N 39°55' W 074°02'38 1.5
2018-May-10 12:33N 40°32' W 074°15'0 0.5
2018-May-10 12:30N 40°32' W 074°15'0 0.0
2018-May-10 12:00N 40°32' W 074°15'0 0.0
2018-May-10 11:30N 40°32' W 074°15'0 0.0
2018-May-10 11:00N 40°32' W 074°15'0 0.0
2018-May-10 10:26N 40°32' W 074°15'0 0.0
2018-May-10 10:00N 40°32' W 074°15'0 0.0
2018-May-10 09:29N 40°32' W 074°15'0 0.0
2018-May-10 08:57N 40°32' W 074°15'0 0.0
2018-May-10 08:28N 40°32' W 074°15'0 0.0
2018-May-10 08:00N 40°32' W 074°15'0 0.0
2018-May-10 07:28N 40°32' W 074°15'0 0.0
2018-May-10 07:00N 40°32' W 074°15'0 0.0
2018-May-10 06:30N 40°32' W 074°15'0 0.0
2018-May-10 06:00N 40°32' W 074°15'0 0.0
2018-May-10 05:28N 40°32' W 074°15'0 0.0
2018-May-10 05:00N 40°32' W 074°15'0 0.0
2018-May-10 04:30N 40°32' W 074°15'0 0.0
2018-May-10 03:22N 40°32' W 074°15'12 1.7
2018-May-09 20:19N 40°28' W 074°01'0 0.0
2018-May-09 19:42N 40°28' W 074°01'0 0.0
2018-May-09 19:29N 40°28' W 074°01'0 0.0
2018-May-09 18:49N 40°28' W 074°01'0 0.0
2018-May-09 18:21N 40°28' W 074°01'0 0.0
2018-May-09 13:14N 40°28' W 074°01'0 0.0
2018-May-09 12:41N 40°28' W 074°01'0 0.0
2018-May-09 12:30N 40°28' W 074°01'0 0.0
2018-May-09 12:00N 40°28' W 074°01'0 0.0
2018-May-09 11:30N 40°28' W 074°01'0 0.0
2018-May-09 11:00N 40°28' W 074°01'0 0.0
2018-May-09 10:26N 40°28' W 074°01'0 0.0
2018-May-09 09:59N 40°28' W 074°01'0 0.0
2018-May-09 08:29N 40°28' W 074°01'0 0.0
2018-May-09 07:59N 40°28' W 074°01'0 0.0
2018-May-09 04:27N 40°28' W 074°01'0 0.0
2018-May-09 03:44N 40°28' W 074°01'0 0.0
2018-May-09 03:28N 40°28' W 074°01'  

Dump ship's entire track history